Time;durP1;ratioP1;P1;durP2;ratioP2;P2;SDS_P1;SDS_P2;PMS_P1;PMS_P2;Temp;Humidity;BMP_temperature;BMP_pressure;BME280_temperature;BME280_humidity;BME280_pressure;Samples;Min_cycle;Max_cycle;Signal;HPM_P1;HPM_P2
2023/03/08 00:00:26;;;;;;;;;;;;;;;;;;5029484;28;19964;-81
2023/03/08 00:02:52;;;;;;;;;;;;;;;;;;5029923;28;20167;-80
2023/03/08 00:05:18;;;;;;;;;;;;;;;;;;5028409;28;20016;-79
2023/03/08 00:07:43;;;;;;;;;;;;;;;;;;5028410;28;19924;-79
2023/03/08 00:10:08;;;;;;;;;;;;;;;;;;5033319;28;20350;-79
2023/03/08 00:12:33;;;;;;;;;;;;;;;;;;5036144;28;20017;-79
2023/03/08 00:14:58;;;;;;;;;;;;;;;;;;5035970;28;20664;-79
2023/03/08 00:17:24;;;;;;;;;;;;;;;;;;5033506;28;20509;-79
2023/03/08 00:19:49;;;;;;;;;;;;;;;;;;5035192;28;19913;-79
2023/03/08 00:22:14;;;;;;;;;;;;;;;;;;5037003;28;19936;-79
2023/03/08 00:24:39;;;;;;;;;;;;;;;;;;5033362;28;20403;-79
2023/03/08 00:27:04;;;;;;;;;;;;;;;;;;5033874;28;19924;-80
2023/03/08 00:29:29;;;;;;;;;;;;;;;;;;5032950;28;19913;-80
2023/03/08 00:31:55;;;;;;;;;;;;;;;;;;5039257;28;19913;-79
2023/03/08 00:34:20;;;;;;;;;;;;;;;;;;5035300;28;19925;-79
2023/03/08 00:36:45;;;;;;;;;;;;;;;;;;5034184;28;19914;-79
2023/03/08 00:39:10;;;;;;;;;;;;;;;;;;5033676;28;20374;-80
2023/03/08 00:41:35;;;;;;;;;;;;;;;;;;5040577;28;19913;-79
2023/03/08 00:44:00;;;;;;;;;;;;;;;;;;5038485;28;20401;-80
2023/03/08 00:46:25;;;;;;;;;;;;;;;;;;5037888;28;19962;-80
2023/03/08 00:48:51;;;;;;;;;;;;;;;;;;5040443;28;19959;-80
2023/03/08 00:51:16;;;;;;;;;;;;;;;;;;5040426;28;19957;-79
2023/03/08 00:53:41;;;;;;;;;;;;;;;;;;5041575;28;20152;-80
2023/03/08 00:56:06;;;;;;;;;;;;;;;;;;5045815;28;20354;-80
2023/03/08 00:58:31;;;;;;;;;;;;;;;;;;5040103;28;19917;-80
2023/03/08 01:00:56;;;;;;;;;;;;;;;;;;5036709;28;19921;-79
2023/03/08 01:03:22;;;;;;;;;;;;;;;;;;5037958;28;19968;-80
2023/03/08 01:05:47;;;;;;;;;;;;;;;;;;5040046;28;20015;-79
2023/03/08 01:08:12;;;;;;;;;;;;;;;;;;5037660;28;20394;-80
2023/03/08 01:10:37;;;;;;;;;;;;;;;;;;5039736;28;19913;-80
2023/03/08 01:13:02;;;;;;;;;;;;;;;;;;5037699;28;20302;-80
2023/03/08 01:15:27;;;;;;;;;;;;;;;;;;5040035;28;19921;-79
2023/03/08 01:17:53;;;;;;;;;;;;;;;;;;5041082;28;20370;-79
2023/03/08 01:20:18;;;;;;;;;;;;;;;;;;5039071;28;19920;-79
2023/03/08 01:22:43;;;;;;;;;;;;;;;;;;5037412;28;20403;-79
2023/03/08 01:25:08;;;;;;;;;;;;;;;;;;5037956;28;19925;-80
2023/03/08 01:27:34;;;;;;;;;;;;;;;;;;5036556;28;19917;-80
2023/03/08 01:29:59;;;;;;;;;;;;;;;;;;5037751;28;19932;-80
2023/03/08 01:32:24;;;;;;;;;;;;;;;;;;5037007;28;19939;-80
2023/03/08 01:34:49;;;;;;;;;;;;;;;;;;5039074;28;19924;-79
2023/03/08 01:37:14;;;;;;;;;;;;;;;;;;5036067;28;19987;-79
2023/03/08 01:39:39;;;;;;;;;;;;;;;;;;5038779;28;19920;-79
2023/03/08 01:42:06;;;;;;;;;;;;;;;;;;5039805;28;20212;-80
2023/03/08 01:44:31;;;;;;;;;;;;;;;;;;5038890;28;19921;-79
2023/03/08 01:46:56;;;;;;;;;;;;;;;;;;5037243;28;20233;-79
2023/03/08 01:49:21;;;;;;;;;;;;;;;;;;5039925;28;19924;-80
2023/03/08 01:51:47;;;;;;;;;;;;;;;;;;5038939;28;20004;-83
2023/03/08 01:54:12;;;;;;;;;;;;;;;;;;5041187;28;19924;-80
2023/03/08 01:56:37;;;;;;;;;;;;;;;;;;5039333;28;19976;-79
2023/03/08 01:59:02;;;;;;;;;;;;;;;;;;5038855;28;19913;-79
2023/03/08 02:01:27;;;;;;;;;;;;;;;;;;5040646;28;19917;-80
2023/03/08 02:03:52;;;;;;;;;;;;;;;;;;5040170;28;19913;-79
2023/03/08 02:06:18;;;;;;;;;;;;;;;;;;5037943;28;20036;-80
2023/03/08 02:08:43;;;;;;;;;;;;;;;;;;5036256;28;19917;-79
2023/03/08 02:11:08;;;;;;;;;;;;;;;;;;5039117;28;19999;-80
2023/03/08 02:13:33;;;;;;;;;;;;;;;;;;5039149;28;20085;-79
2023/03/08 02:15:58;;;;;;;;;;;;;;;;;;5041032;28;19929;-80
2023/03/08 02:18:24;;;;;;;;;;;;;;;;;;5036620;28;19913;-80
2023/03/08 02:20:49;;;;;;;;;;;;;;;;;;5036807;28;20007;-79
2023/03/08 02:23:14;;;;;;;;;;;;;;;;;;5023700;28;19936;-79
2023/03/08 02:25:39;;;;;;;;;;;;;;;;;;5036767;28;20353;-80
2023/03/08 02:28:04;;;;;;;;;;;;;;;;;;5038606;28;19933;-79
2023/03/08 02:30:29;;;;;;;;;;;;;;;;;;5035041;28;20420;-80
2023/03/08 02:32:55;;;;;;;;;;;;;;;;;;5039243;28;19933;-80
2023/03/08 02:35:20;;;;;;;;;;;;;;;;;;5036401;28;20437;-79
2023/03/08 02:37:45;;;;;;;;;;;;;;;;;;5035713;28;19924;-79
2023/03/08 02:40:10;;;;;;;;;;;;;;;;;;5034716;28;19938;-80
2023/03/08 02:42:35;;;;;;;;;;;;;;;;;;5033606;28;19913;-79
2023/03/08 02:45:01;;;;;;;;;;;;;;;;;;5041394;28;19913;-79
2023/03/08 02:47:26;;;;;;;;;;;;;;;;;;5035981;28;19917;-79
2023/03/08 02:49:51;;;;;;;;;;;;;;;;;;5036800;28;20291;-80
2023/03/08 02:52:16;;;;;;;;;;;;;;;;;;5035445;28;19932;-79
2023/03/08 02:54:41;;;;;;;;;;;;;;;;;;5037203;28;21380;-80
2023/03/08 02:57:06;;;;;;;;;;;;;;;;;;5038764;28;19924;-79
2023/03/08 02:59:31;;;;;;;;;;;;;;;;;;5038019;28;20058;-79
2023/03/08 03:01:57;;;;;;;;;;;;;;;;;;5032822;28;19921;-80
2023/03/08 03:04:22;;;;;;;;;;;;;;;;;;5029916;28;20016;-80
2023/03/08 03:06:47;;;;;;;;;;;;;;;;;;5034835;28;19948;-79
2023/03/08 03:09:12;;;;;;;;;;;;;;;;;;5033398;28;19936;-80
2023/03/08 03:11:37;;;;;;;;;;;;;;;;;;5033323;28;20016;-79
2023/03/08 03:14:03;;;;;;;;;;;;;;;;;;5032287;28;19970;-79
2023/03/08 03:16:28;;;;;;;;;;;;;;;;;;5029161;28;20356;-79
2023/03/08 03:18:53;;;;;;;;;;;;;;;;;;5036833;28;20078;-79
2023/03/08 03:21:18;;;;;;;;;;;;;;;;;;5033310;28;19925;-79
2023/03/08 03:23:43;;;;;;;;;;;;;;;;;;5039534;28;20368;-79
2023/03/08 03:26:08;;;;;;;;;;;;;;;;;;5033906;28;19913;-79
2023/03/08 03:28:34;;;;;;;;;;;;;;;;;;5030043;28;19927;-79
2023/03/08 03:30:59;;;;;;;;;;;;;;;;;;5035743;28;20474;-79
2023/03/08 03:33:24;;;;;;;;;;;;;;;;;;5033506;28;19921;-79
2023/03/08 03:35:49;;;;;;;;;;;;;;;;;;5033634;28;20421;-79
2023/03/08 03:38:14;;;;;;;;;;;;;;;;;;5029995;28;20366;-79
2023/03/08 03:40:39;;;;;;;;;;;;;;;;;;5033064;28;19913;-79
2023/03/08 03:43:05;;;;;;;;;;;;;;;;;;5035175;28;20458;-79
2023/03/08 03:45:30;;;;;;;;;;;;;;;;;;5034510;28;19913;-79
2023/03/08 03:47:55;;;;;;;;;;;;;;;;;;5031805;28;20058;-80
2023/03/08 03:50:20;;;;;;;;;;;;;;;;;;5034364;28;19922;-79
2023/03/08 03:52:45;;;;;;;;;;;;;;;;;;5032519;28;19913;-79
2023/03/08 03:55:10;;;;;;;;;;;;;;;;;;5030947;28;19932;-79
2023/03/08 03:57:36;;;;;;;;;;;;;;;;;;5036694;28;19916;-79
2023/03/08 04:00:01;;;;;;;;;;;;;;;;;;5030501;28;20053;-79
2023/03/08 04:02:26;;;;;;;;;;;;;;;;;;5031638;28;19924;-80
2023/03/08 04:04:51;;;;;;;;;;;;;;;;;;5033128;28;19967;-79
2023/03/08 04:07:16;;;;;;;;;;;;;;;;;;5033191;28;20330;-80
2023/03/08 04:09:41;;;;;;;;;;;;;;;;;;5035622;28;21720;-80
2023/03/08 04:12:07;;;;;;;;;;;;;;;;;;5033342;28;19988;-80
2023/03/08 04:14:32;;;;;;;;;;;;;;;;;;5031758;28;19917;-80
2023/03/08 04:16:57;;;;;;;;;;;;;;;;;;5030085;28;20290;-80
2023/03/08 04:19:22;;;;;;;;;;;;;;;;;;5031717;28;20005;-80
2023/03/08 04:21:47;;;;;;;;;;;;;;;;;;5031958;28;20211;-79
2023/03/08 04:24:12;;;;;;;;;;;;;;;;;;5033621;28;19959;-79
2023/03/08 04:26:38;;;;;;;;;;;;;;;;;;5031140;28;19913;-79
2023/03/08 04:29:04;;;;;;;;;;;;;;;;;;5032655;28;20307;-79
2023/03/08 04:31:30;;;;;;;;;;;;;;;;;;5032527;28;19917;-80
2023/03/08 04:33:57;;;;;;;;;;;;;;;;;;5034517;28;19917;-79
2023/03/08 04:36:22;;;;;;;;;;;;;;;;;;5030467;28;19979;-79
2023/03/08 04:38:47;;;;;;;;;;;;;;;;;;5035348;28;19914;-79
2023/03/08 04:41:12;;;;;;;;;;;;;;;;;;5034778;28;19913;-79
2023/03/08 04:43:38;;;;;;;;;;;;;;;;;;5032729;28;19938;-80
2023/03/08 04:46:03;;;;;;;;;;;;;;;;;;5035240;28;20028;-79
2023/03/08 04:48:28;;;;;;;;;;;;;;;;;;5030990;28;19913;-79
2023/03/08 04:50:53;;;;;;;;;;;;;;;;;;5036137;28;19913;-79
2023/03/08 04:53:19;;;;;;;;;;;;;;;;;;5030518;28;20396;-80
2023/03/08 04:55:44;;;;;;;;;;;;;;;;;;5035450;28;20427;-80
2023/03/08 04:58:09;;;;;;;;;;;;;;;;;;5033275;28;19975;-79
2023/03/08 05:00:34;;;;;;;;;;;;;;;;;;5035235;28;19913;-79
2023/03/08 05:02:59;;;;;;;;;;;;;;;;;;5034463;28;19913;-79
2023/03/08 05:05:24;;;;;;;;;;;;;;;;;;5032223;28;20310;-80
2023/03/08 05:07:49;;;;;;;;;;;;;;;;;;5029629;28;19913;-80
2023/03/08 05:10:15;;;;;;;;;;;;;;;;;;5030273;28;20527;-79
2023/03/08 05:12:40;;;;;;;;;;;;;;;;;;5029458;28;19966;-80
2023/03/08 05:15:05;;;;;;;;;;;;;;;;;;5033675;28;20659;-79
2023/03/08 05:17:30;;;;;;;;;;;;;;;;;;5028802;28;20111;-79
2023/03/08 05:19:55;;;;;;;;;;;;;;;;;;5035207;28;19920;-79
2023/03/08 05:22:21;;;;;;;;;;;;;;;;;;5032429;28;20473;-79
2023/03/08 05:24:47;;;;;;;;;;;;;;;;;;5030373;28;19917;-79
2023/03/08 05:27:12;;;;;;;;;;;;;;;;;;5031190;28;20329;-79
2023/03/08 05:29:37;;;;;;;;;;;;;;;;;;5039217;28;19919;-79
2023/03/08 05:32:02;;;;;;;;;;;;;;;;;;5032897;28;19974;-79
2023/03/08 05:34:28;;;;;;;;;;;;;;;;;;5032898;28;19917;-80
2023/03/08 05:36:53;;;;;;;;;;;;;;;;;;5033836;28;19949;-80
2023/03/08 05:39:18;;;;;;;;;;;;;;;;;;5033977;28;19924;-79
2023/03/08 05:41:43;;;;;;;;;;;;;;;;;;5020650;28;19939;-79
2023/03/08 05:44:08;;;;;;;;;;;;;;;;;;5037920;28;19936;-80
2023/03/08 05:46:33;;;;;;;;;;;;;;;;;;5023399;28;19989;-80
2023/03/08 05:48:59;;;;;;;;;;;;;;;;;;5038622;28;19996;-80
2023/03/08 05:51:24;;;;;;;;;;;;;;;;;;5035153;28;19923;-79
2023/03/08 05:53:49;;;;;;;;;;;;;;;;;;5035629;28;19944;-79
2023/03/08 05:56:14;;;;;;;;;;;;;;;;;;5037240;28;19925;-79
2023/03/08 05:58:40;;;;;;;;;;;;;;;;;;5038122;28;20371;-80
2023/03/08 06:01:05;;;;;;;;;;;;;;;;;;5022505;28;19921;-80
2023/03/08 06:03:30;;;;;;;;;;;;;;;;;;5038407;28;20012;-80
2023/03/08 06:05:55;;;;;;;;;;;;;;;;;;5035632;28;19921;-80
2023/03/08 06:08:20;;;;;;;;;;;;;;;;;;5036855;28;20366;-80
2023/03/08 06:10:45;;;;;;;;;;;;;;;;;;5032004;28;19924;-80
2023/03/08 06:13:10;;;;;;;;;;;;;;;;;;5034096;28;20211;-80
2023/03/08 06:15:36;;;;;;;;;;;;;;;;;;5035450;28;19917;-80
2023/03/08 06:18:01;;;;;;;;;;;;;;;;;;5034166;28;19913;-80
2023/03/08 06:20:26;;;;;;;;;;;;;;;;;;5037213;28;20371;-80
2023/03/08 06:22:51;;;;;;;;;;;;;;;;;;5035562;28;19913;-80
2023/03/08 06:25:16;;;;;;;;;;;;;;;;;;5034528;28;20020;-80
2023/03/08 06:27:41;;;;;;;;;;;;;;;;;;5040099;28;20394;-80
2023/03/08 06:30:07;;;;;;;;;;;;;;;;;;5037949;28;19975;-80
2023/03/08 06:32:32;;;;;;;;;;;;;;;;;;5037948;28;19919;-80
2023/03/08 06:34:57;;;;;;;;;;;;;;;;;;5037821;28;19995;-80
2023/03/08 06:37:22;;;;;;;;;;;;;;;;;;5036642;28;20402;-80
2023/03/08 06:39:47;;;;;;;;;;;;;;;;;;5027220;28;19920;-80
2023/03/08 06:42:12;;;;;;;;;;;;;;;;;;5034482;28;20394;-80
2023/03/08 06:44:38;;;;;;;;;;;;;;;;;;5034849;28;19913;-80
2023/03/08 06:47:03;;;;;;;;;;;;;;;;;;5037736;28;20335;-80
2023/03/08 06:49:28;;;;;;;;;;;;;;;;;;5039507;28;19921;-80
2023/03/08 06:51:53;;;;;;;;;;;;;;;;;;5033247;28;20224;-80
2023/03/08 06:54:18;;;;;;;;;;;;;;;;;;5033392;28;19924;-80
2023/03/08 06:56:43;;;;;;;;;;;;;;;;;;5034870;28;19925;-81
2023/03/08 06:59:08;;;;;;;;;;;;;;;;;;5031250;28;19916;-80
2023/03/08 07:01:34;;;;;;;;;;;;;;;;;;5032525;28;19917;-80
2023/03/08 07:03:59;;;;;;;;;;;;;;;;;;5019254;28;19912;-80
2023/03/08 07:06:24;;;;;;;;;;;;;;;;;;5033151;28;20368;-80
2023/03/08 07:08:49;;;;;;;;;;;;;;;;;;5031894;28;19917;-81
2023/03/08 07:11:14;;;;;;;;;;;;;;;;;;5034746;28;20607;-81
2023/03/08 07:13:40;;;;;;;;;;;;;;;;;;5035848;28;19913;-81
2023/03/08 07:16:05;;;;;;;;;;;;;;;;;;5034229;28;19925;-81
2023/03/08 07:18:30;;;;;;;;;;;;;;;;;;5032907;28;20578;-81
2023/03/08 07:20:56;;;;;;;;;;;;;;;;;;5033505;28;19917;-81
2023/03/08 07:23:21;;;;;;;;;;;;;;;;;;5032975;28;19916;-82
2023/03/08 07:25:46;;;;;;;;;;;;;;;;;;5036498;28;19924;-82
2023/03/08 07:28:11;;;;;;;;;;;;;;;;;;5036902;28;20426;-81
2023/03/08 07:30:36;;;;;;;;;;;;;;;;;;5032785;28;19917;-81
2023/03/08 07:33:01;;;;;;;;;;;;;;;;;;5032884;28;20344;-83
2023/03/08 07:35:27;;;;;;;;;;;;;;;;;;5036480;28;19928;-82
2023/03/08 07:37:52;;;;;;;;;;;;;;;;;;5034864;28;19913;-83
2023/03/08 07:40:17;;;;;;;;;;;;;;;;;;5036844;28;20441;-82
2023/03/08 07:42:42;;;;;;;;;;;;;;;;;;5036379;28;19947;-82
2023/03/08 07:45:07;;;;;;;;;;;;;;;;;;5036175;28;19920;-82
2023/03/08 07:47:33;;;;;;;;;;;;;;;;;;5037175;28;19919;-82
2023/03/08 07:49:58;;;;;;;;;;;;;;;;;;5035667;28;20183;-82
2023/03/08 07:52:23;;;;;;;;;;;;;;;;;;5034648;28;20008;-82
2023/03/08 07:54:48;;;;;;;;;;;;;;;;;;5032309;28;19917;-82
2023/03/08 07:57:14;;;;;;;;;;;;;;;;;;5032825;28;19917;-82
2023/03/08 07:59:39;;;;;;;;;;;;;;;;;;5033408;28;20518;-82
2023/03/08 08:02:04;;;;;;;;;;;;;;;;;;5030543;28;19921;-82
2023/03/08 08:04:29;;;;;;;;;;;;;;;;;;5031224;28;19975;-82
2023/03/08 08:06:54;;;;;;;;;;;;;;;;;;5027862;28;20413;-83
2023/03/08 08:09:19;;;;;;;;;;;;;;;;;;5033953;28;19917;-82
2023/03/08 08:11:45;;;;;;;;;;;;;;;;;;5029508;28;19921;-83
2023/03/08 08:14:10;;;;;;;;;;;;;;;;;;5031402;28;20322;-82
2023/03/08 08:16:35;;;;;;;;;;;;;;;;;;5030470;28;19920;-82
2023/03/08 08:19:00;;;;;;;;;;;;;;;;;;5031587;28;19979;-82
2023/03/08 08:21:25;;;;;;;;;;;;;;;;;;5036670;28;19968;-82
2023/03/08 08:23:52;;;;;;;;;;;;;;;;;;5037964;28;19964;-82
2023/03/08 08:26:17;;;;;;;;;;;;;;;;;;5035030;28;19928;-81
2023/03/08 08:28:42;;;;;;;;;;;;;;;;;;5032830;28;20389;-82
2023/03/08 08:31:07;;;;;;;;;;;;;;;;;;5031790;28;20313;-81
2023/03/08 08:33:32;;;;;;;;;;;;;;;;;;5033020;28;20015;-82
2023/03/08 08:35:58;;;;;;;;;;;;;;;;;;5030146;28;19925;-82
2023/03/08 08:38:23;;;;;;;;;;;;;;;;;;5032529;28;19995;-82
2023/03/08 08:40:48;;;;;;;;;;;;;;;;;;5027810;28;19913;-82
2023/03/08 08:43:13;;;;;;;;;;;;;;;;;;5037436;28;19970;-81
2023/03/08 08:45:38;;;;;;;;;;;;;;;;;;5032930;28;19974;-82
2023/03/08 08:48:04;;;;;;;;;;;;;;;;;;5031475;28;19921;-82
2023/03/08 08:50:29;;;;;;;;;;;;;;;;;;5027455;28;19913;-81
2023/03/08 08:52:55;;;;;;;;;;;;;;;;;;5029957;28;19917;-82
2023/03/08 08:55:20;;;;;;;;;;;;;;;;;;5030769;28;19921;-82
2023/03/08 08:57:45;;;;;;;;;;;;;;;;;;5028329;28;19917;-82
2023/03/08 09:00:10;;;;;;;;;;;;;;;;;;5035213;28;19923;-82
2023/03/08 09:02:35;;;;;;;;;;;;;;;;;;5034918;28;19917;-82
2023/03/08 09:05:00;;;;;;;;;;;;;;;;;;5034434;28;19917;-82
2023/03/08 09:07:25;;;;;;;;;;;;;;;;;;5032602;28;19971;-82
2023/03/08 09:09:51;;;;;;;;;;;;;;;;;;5031182;28;20394;-82
2023/03/08 09:12:16;;;;;;;;;;;;;;;;;;5042042;28;19917;-83
2023/03/08 09:14:41;;;;;;;;;;;;;;;;;;5036528;28;19917;-82
2023/03/08 09:17:06;;;;;;;;;;;;;;;;;;5035274;28;19924;-81
2023/03/08 09:19:31;;;;;;;;;;;;;;;;;;5035351;28;20428;-81
2023/03/08 09:21:57;;;;;;;;;;;;;;;;;;5038644;28;19921;-82
2023/03/08 09:24:22;;;;;;;;;;;;;;;;;;5036313;28;20000;-81
2023/03/08 09:26:47;;;;;;;;;;;;;;;;;;5032540;28;20653;-81
2023/03/08 09:29:12;;;;;;;;;;;;;;;;;;5038889;28;20405;-81
2023/03/08 09:31:37;;;;;;;;;;;;;;;;;;5038171;28;19927;-81
2023/03/08 09:34:07;;;;;;;;;;;;;;;;;;5032664;28;19925;-81
2023/03/08 09:36:32;;;;;;;;;;;;;;;;;;5032081;28;20026;-81
2023/03/08 09:38:58;;;;;;;;;;;;;;;;;;5040317;28;19945;-81
2023/03/08 09:41:26;;;;;;;;;;;;;;;;;;5032489;28;20434;-81
2023/03/08 09:43:51;;;;;;;;;;;;;;;;;;5032224;28;19917;-81
2023/03/08 09:46:16;;;;;;;;;;;;;;;;;;5040523;28;20131;-81
2023/03/08 09:48:43;;;;;;;;;;;;;;;;;;5032486;28;19963;-82
2023/03/08 09:51:08;;;;;;;;;;;;;;;;;;5030580;28;20007;-82
2023/03/08 09:53:33;;;;;;;;;;;;;;;;;;5035556;28;20007;-81
2023/03/08 09:55:58;;;;;;;;;;;;;;;;;;5032665;28;20256;-83
2023/03/08 09:58:23;;;;;;;;;;;;;;;;;;5034089;28;19932;-81
2023/03/08 10:00:49;;;;;;;;;;;;;;;;;;5037967;28;20389;-82
2023/03/08 10:03:14;;;;;;;;;;;;;;;;;;5034238;28;19971;-83
2023/03/08 10:05:39;;;;;;;;;;;;;;;;;;5029822;28;19932;-81
2023/03/08 10:08:04;;;;;;;;;;;;;;;;;;5034464;28;20623;-81
2023/03/08 10:10:29;;;;;;;;;;;;;;;;;;5033719;28;19913;-81
2023/03/08 10:12:55;;;;;;;;;;;;;;;;;;5036837;28;20394;-81
2023/03/08 10:15:20;;;;;;;;;;;;;;;;;;5029710;28;20366;-81
2023/03/08 10:17:45;;;;;;;;;;;;;;;;;;5030428;28;19970;-82
2023/03/08 10:20:10;;;;;;;;;;;;;;;;;;5033515;28;19928;-81
2023/03/08 10:22:41;;;;;;;;;;;;;;;;;;5032571;28;19924;-81
2023/03/08 10:25:06;;;;;;;;;;;;;;;;;;5033150;28;19920;-82
2023/03/08 10:27:31;;;;;;;;;;;;;;;;;;5031774;28;19970;-81
2023/03/08 10:29:56;;;;;;;;;;;;;;;;;;5031102;28;19928;-81
2023/03/08 10:32:21;;;;;;;;;;;;;;;;;;5032618;28;19986;-83
2023/03/08 10:34:47;;;;;;;;;;;;;;;;;;5032017;28;19926;-81
2023/03/08 10:37:12;;;;;;;;;;;;;;;;;;5035128;28;19940;-81
2023/03/08 10:39:38;;;;;;;;;;;;;;;;;;5034437;28;19962;-82
2023/03/08 10:42:03;;;;;;;;;;;;;;;;;;5032643;28;19924;-81
2023/03/08 10:44:29;;;;;;;;;;;;;;;;;;5029930;28;19939;-82
2023/03/08 10:46:54;;;;;;;;;;;;;;;;;;5030375;28;19913;-83
2023/03/08 10:49:19;;;;;;;;;;;;;;;;;;5030820;28;19924;-81
2023/03/08 10:51:45;;;;;;;;;;;;;;;;;;5032544;28;19921;-81
2023/03/08 10:54:10;;;;;;;;;;;;;;;;;;5028537;28;19924;-82
2023/03/08 10:56:35;;;;;;;;;;;;;;;;;;5030503;28;19921;-82
2023/03/08 10:59:00;;;;;;;;;;;;;;;;;;5031817;28;19938;-82
2023/03/08 11:01:25;;;;;;;;;;;;;;;;;;5030901;28;19923;-82
2023/03/08 11:03:50;;;;;;;;;;;;;;;;;;5032248;28;20303;-81
2023/03/08 11:06:17;;;;;;;;;;;;;;;;;;5031956;28;20207;-82
2023/03/08 11:08:43;;;;;;;;;;;;;;;;;;5031963;28;19923;-81
2023/03/08 11:11:08;;;;;;;;;;;;;;;;;;5030598;28;20556;-83
2023/03/08 11:13:34;;;;;;;;;;;;;;;;;;5031092;28;19913;-82
2023/03/08 11:15:59;;;;;;;;;;;;;;;;;;5029096;28;19927;-82
2023/03/08 11:18:24;;;;;;;;;;;;;;;;;;5028193;28;20302;-81
2023/03/08 11:20:49;;;;;;;;;;;;;;;;;;5037981;28;19924;-82
2023/03/08 11:23:14;;;;;;;;;;;;;;;;;;5036509;28;20412;-81
2023/03/08 11:25:39;;;;;;;;;;;;;;;;;;5039197;28;19963;-81
2023/03/08 11:28:05;;;;;;;;;;;;;;;;;;5019731;28;19940;-81
2023/03/08 11:30:30;;;;;;;;;;;;;;;;;;5036118;28;19922;-81
2023/03/08 11:32:55;;;;;;;;;;;;;;;;;;5036689;28;20267;-81
2023/03/08 11:35:23;;;;;;;;;;;;;;;;;;5039372;28;20175;-82
2023/03/08 11:37:48;;;;;;;;;;;;;;;;;;5034555;28;19921;-81
2023/03/08 11:40:13;;;;;;;;;;;;;;;;;;5031933;28;19920;-81
2023/03/08 11:42:38;;;;;;;;;;;;;;;;;;5033208;28;19963;-81
2023/03/08 11:45:03;;;;;;;;;;;;;;;;;;5033063;28;19994;-82
2023/03/08 11:47:29;;;;;;;;;;;;;;;;;;5032281;28;19940;-81
2023/03/08 11:49:54;;;;;;;;;;;;;;;;;;5031131;28;20334;-81
2023/03/08 11:52:19;;;;;;;;;;;;;;;;;;5027238;28;19924;-81
2023/03/08 11:54:44;;;;;;;;;;;;;;;;;;5028674;28;20432;-81
2023/03/08 11:57:09;;;;;;;;;;;;;;;;;;5027967;28;19920;-81
2023/03/08 11:59:34;;;;;;;;;;;;;;;;;;5031189;28;20389;-80
2023/03/08 12:02:01;;;;;;;;;;;;;;;;;;5031469;28;19913;-81
2023/03/08 12:07:01;;;;;;;;;;;;;;;;;;5044190;28;19938;-84
2023/03/08 12:09:26;;;;;;;;;;;;;;;;;;5044753;28;19917;-85
2023/03/08 12:11:51;;;;;;;;;;;;;;;;;;5030481;28;20381;-84
2023/03/08 12:14:17;;;;;;;;;;;;;;;;;;5046949;28;20179;-84
2023/03/08 12:16:42;;;;;;;;;;;;;;;;;;5028766;28;20007;-84
2023/03/08 12:19:07;;;;;;;;;;;;;;;;;;5024990;28;20100;-84
2023/03/08 12:21:33;;;;;;;;;;;;;;;;;;5023254;28;20294;-84
2023/03/08 12:23:58;;;;;;;;;;;;;;;;;;5023360;28;19928;-84
2023/03/08 12:26:23;;;;;;;;;;;;;;;;;;5027521;28;19914;-85
2023/03/08 12:28:48;;;;;;;;;;;;;;;;;;5030042;28;19924;-85
2023/03/08 12:31:14;;;;;;;;;;;;;;;;;;5027473;28;19989;-85
2023/03/08 12:33:39;;;;;;;;;;;;;;;;;;5022717;28;19917;-84
2023/03/08 12:36:04;;;;;;;;;;;;;;;;;;5023211;28;21645;-85
2023/03/08 12:38:29;;;;;;;;;;;;;;;;;;5028760;28;19920;-85
2023/03/08 12:40:55;;;;;;;;;;;;;;;;;;5033784;28;19939;-85
2023/03/08 12:43:20;;;;;;;;;;;;;;;;;;5025667;28;19914;-84
2023/03/08 12:45:57;;;;;;;;;;;;;;;;;;5029191;28;19916;-84
2023/03/08 12:48:22;;;;;;;;;;;;;;;;;;5009864;28;19914;-85
2023/03/08 12:50:48;;;;;;;;;;;;;;;;;;5024500;28;19914;-85
2023/03/08 12:53:14;;;;;;;;;;;;;;;;;;5023650;28;19921;-85
2023/03/08 12:55:39;;;;;;;;;;;;;;;;;;5030633;28;20071;-84
2023/03/08 12:58:04;;;;;;;;;;;;;;;;;;5022640;28;19964;-85
2023/03/08 13:00:30;;;;;;;;;;;;;;;;;;5031575;28;19917;-84
2023/03/08 13:02:55;;;;;;;;;;;;;;;;;;5025298;28;19917;-84
2023/03/08 13:05:20;;;;;;;;;;;;;;;;;;5027245;28;19990;-85
2023/03/08 13:07:45;;;;;;;;;;;;;;;;;;5026730;28;19921;-85
2023/03/08 13:10:11;;;;;;;;;;;;;;;;;;5029396;28;19916;-84
2023/03/08 13:12:36;;;;;;;;;;;;;;;;;;5032240;28;19928;-85
2023/03/08 13:15:01;;;;;;;;;;;;;;;;;;5029756;28;19925;-84
2023/03/08 13:17:26;;;;;;;;;;;;;;;;;;5029865;28;19944;-84
2023/03/08 13:19:52;;;;;;;;;;;;;;;;;;5030056;28;19913;-84
2023/03/08 13:22:17;;;;;;;;;;;;;;;;;;5025502;28;19917;-86
2023/03/08 13:24:42;;;;;;;;;;;;;;;;;;5029024;28;19929;-84
2023/03/08 13:27:07;;;;;;;;;;;;;;;;;;5028431;28;19920;-86
2023/03/08 13:29:32;;;;;;;;;;;;;;;;;;5026282;28;19940;-84
2023/03/08 13:31:57;;;;;;;;;;;;;;;;;;5030277;28;20008;-84
2023/03/08 13:34:23;;;;;;;;;;;;;;;;;;5027198;28;19917;-84
2023/03/08 13:36:50;;;;;;;;;;;;;;;;;;5027371;28;20371;-85
2023/03/08 13:39:15;;;;;;;;;;;;;;;;;;5024561;28;19920;-84
2023/03/08 13:41:41;;;;;;;;;;;;;;;;;;5026260;28;19913;-85
2023/03/08 13:44:06;;;;;;;;;;;;;;;;;;5028546;28;20034;-84
2023/03/08 13:46:32;;;;;;;;;;;;;;;;;;5030290;28;19924;-85
2023/03/08 13:48:57;;;;;;;;;;;;;;;;;;5029577;28;20202;-84
2023/03/08 13:51:22;;;;;;;;;;;;;;;;;;5030713;28;19917;-84
2023/03/08 13:53:47;;;;;;;;;;;;;;;;;;5025763;28;19914;-85
2023/03/08 13:56:12;;;;;;;;;;;;;;;;;;5029945;28;20378;-84
2023/03/08 13:58:38;;;;;;;;;;;;;;;;;;5025268;28;19939;-85
2023/03/08 14:01:03;;;;;;;;;;;;;;;;;;5028019;28;20305;-84
2023/03/08 14:03:28;;;;;;;;;;;;;;;;;;5028697;28;19936;-85
2023/03/08 14:05:53;;;;;;;;;;;;;;;;;;5031806;28;19920;-84
2023/03/08 14:08:19;;;;;;;;;;;;;;;;;;5022805;28;19943;-84
2023/03/08 14:10:44;;;;;;;;;;;;;;;;;;5029635;28;19929;-85
2023/03/08 14:13:09;;;;;;;;;;;;;;;;;;5027179;28;20033;-84
2023/03/08 14:15:34;;;;;;;;;;;;;;;;;;5026206;28;20004;-84
2023/03/08 14:18:01;;;;;;;;;;;;;;;;;;5027362;28;20378;-84
2023/03/08 14:20:26;;;;;;;;;;;;;;;;;;5025381;28;20472;-84
2023/03/08 14:22:51;;;;;;;;;;;;;;;;;;5029673;28;19921;-85
2023/03/08 14:25:16;;;;;;;;;;;;;;;;;;5029003;28;19967;-84
2023/03/08 14:27:44;;;;;;;;;;;;;;;;;;5027414;28;19920;-84
2023/03/08 14:30:09;;;;;;;;;;;;;;;;;;5026480;28;19967;-84
2023/03/08 14:32:34;;;;;;;;;;;;;;;;;;5026155;28;19925;-84
2023/03/08 14:34:59;;;;;;;;;;;;;;;;;;5024217;28;19960;-85
2023/03/08 14:37:24;;;;;;;;;;;;;;;;;;5025752;28;19916;-84
2023/03/08 14:39:50;;;;;;;;;;;;;;;;;;5027488;28;19919;-84
2023/03/08 14:42:15;;;;;;;;;;;;;;;;;;5028748;28;20199;-84
2023/03/08 14:44:41;;;;;;;;;;;;;;;;;;5024304;28;19935;-84
2023/03/08 14:47:07;;;;;;;;;;;;;;;;;;5028945;28;20281;-84
2023/03/08 14:49:32;;;;;;;;;;;;;;;;;;5028820;28;19963;-86
2023/03/08 14:51:58;;;;;;;;;;;;;;;;;;5024557;28;19963;-84
2023/03/08 14:54:23;;;;;;;;;;;;;;;;;;5025331;28;20394;-84
2023/03/08 14:56:48;;;;;;;;;;;;;;;;;;5027714;28;20357;-86
2023/03/08 14:59:13;;;;;;;;;;;;;;;;;;5023713;28;20305;-85
2023/03/08 15:01:39;;;;;;;;;;;;;;;;;;5023839;28;19920;-84
2023/03/08 15:04:13;;;;;;;;;;;;;;;;;;5028219;28;20008;-86
2023/03/08 15:06:43;;;;;;;;;;;;;;;;;;5026974;28;20023;-85
2023/03/08 15:09:08;;;;;;;;;;;;;;;;;;5021341;28;19917;-85
2023/03/08 15:11:34;;;;;;;;;;;;;;;;;;5019222;28;20002;-84
2023/03/08 15:14:00;;;;;;;;;;;;;;;;;;5028461;28;19924;-84
2023/03/08 15:16:31;;;;;;;;;;;;;;;;;;5025459;28;19931;-84
2023/03/08 15:19:16;;;;;;;;;;;;;;;;;;5022580;28;19971;-84
2023/03/08 15:21:42;;;;;;;;;;;;;;;;;;5025909;28;20592;-84
2023/03/08 15:24:10;;;;;;;;;;;;;;;;;;5027622;28;20074;-84
2023/03/08 15:26:36;;;;;;;;;;;;;;;;;;5026591;28;20045;-84
2023/03/08 15:29:04;;;;;;;;;;;;;;;;;;5027177;28;20500;-85
2023/03/08 15:31:31;;;;;;;;;;;;;;;;;;5021946;28;19913;-85
2023/03/08 15:33:56;;;;;;;;;;;;;;;;;;5024544;28;21180;-84
2023/03/08 15:36:23;;;;;;;;;;;;;;;;;;5024963;28;20054;-85
2023/03/08 15:38:54;;;;;;;;;;;;;;;;;;5005243;28;19975;-85
2023/03/08 15:41:22;;;;;;;;;;;;;;;;;;5004942;28;19964;-84
2023/03/08 15:43:48;;;;;;;;;;;;;;;;;;5026075;28;19940;-84
2023/03/08 15:46:16;;;;;;;;;;;;;;;;;;5027699;28;19965;-84
2023/03/08 15:48:46;;;;;;;;;;;;;;;;;;5025494;28;19967;-85
2023/03/08 15:51:18;;;;;;;;;;;;;;;;;;5022363;28;20329;-84
2023/03/08 15:56:53;;;;;;;;;;;;;;;;;;5031178;28;19994;-84
2023/03/08 15:59:23;;;;;;;;;;;;;;;;;;5017778;28;19921;-84
2023/03/08 16:01:51;;;;;;;;;;;;;;;;;;5026984;28;19927;-84
2023/03/08 16:04:17;;;;;;;;;;;;;;;;;;5029034;28;19921;-84
2023/03/08 16:07:03;;;;;;;;;;;;;;;;;;5027623;28;20085;-87
2023/03/08 16:09:30;;;;;;;;;;;;;;;;;;5021273;28;19967;-84
2023/03/08 16:12:01;;;;;;;;;;;;;;;;;;5020737;28;20371;-86
2023/03/08 16:14:27;;;;;;;;;;;;;;;;;;5008702;28;19920;-84
2023/03/08 16:16:55;;;;;;;;;;;;;;;;;;5021353;28;20375;-85
2023/03/08 16:19:29;;;;;;;;;;;;;;;;;;5020878;28;19924;-84
2023/03/08 16:21:55;;;;;;;;;;;;;;;;;;5020830;28;19916;-85
2023/03/08 16:24:20;;;;;;;;;;;;;;;;;;5022575;28;20389;-84
2023/03/08 16:26:52;;;;;;;;;;;;;;;;;;5028050;28;20193;-86
2023/03/08 16:29:37;;;;;;;;;;;;;;;;;;5031496;28;19917;-82
2023/03/08 16:32:02;;;;;;;;;;;;;;;;;;5047511;28;19928;-82
2023/03/08 16:34:27;;;;;;;;;;;;;;;;;;5049344;28;19917;-82
2023/03/08 16:36:53;;;;;;;;;;;;;;;;;;5050284;28;19921;-82
2023/03/08 16:39:18;;;;;;;;;;;;;;;;;;5043541;28;19984;-82